Suehiro Maru No.8 — JK5423 — position and weather

sailwx.info

Track history (hours):
 
Tides and Currents Weather Stations Pressure Air Temp Water Temp Dewpoint Dewpoint Depression Visibility Wind Speed Wind Dir Waves Ship Positions

Suehiro Maru No.8

Last reported at 2015-Sep-02 14:09 UTC. Time now 2015-Sep-03 08:53 UTC.
Position N 34°12' E 134°50'.

Length 88 m; draft 4.9 m.

Type: Cargo ship. MMSI: 431400446.

Date/timePositionNaut miles runAvg speedWind from/ knotsBaromVisibWave heightAir tempDewpointWater temp
2015-Sep-02 14:09N 34°12' E 134°50'712.1
2015-Sep-02 13:33N 34°14' E 134°58'7 7.3
2015-Sep-02 12:33N 34°15' E 135°07'0 0.0
2015-Sep-02 11:33N 34°15' E 135°07'0 0.0
2015-Sep-02 10:33N 34°15' E 135°07'0 0.0
2015-Sep-02 09:33N 34°15' E 135°07'0 0.0
2015-Sep-02 08:33N 34°15' E 135°07'0 0.0
2015-Sep-02 07:33N 34°15' E 135°07'0 0.0
2015-Sep-02 06:33N 34°15' E 135°07'0 0.0
2015-Sep-02 05:33N 34°15' E 135°07'0 0.0
2015-Sep-02 04:33N 34°15' E 135°07'0 0.0
2015-Sep-02 03:33N 34°15' E 135°07'0 0.0
2015-Sep-02 02:33N 34°15' E 135°07'1 1.1
2015-Sep-02 01:33N 34°14' E 135°06'7 7.1
2015-Sep-02 00:33N 34°08' E 135°03'  
2015-Aug-30 09:33N 34°06' E 135°03'9 9.4
2015-Aug-30 08:33N 34°15' E 135°07'0 0.1
2015-Aug-30 07:33N 34°15' E 135°07'0 0.0
2015-Aug-30 06:33N 34°15' E 135°07'0 0.0
2015-Aug-30 05:33N 34°15' E 135°07'0 0.0
2015-Aug-30 04:33N 34°15' E 135°07'0 0.0
2015-Aug-30 03:33N 34°15' E 135°07'0 0.0
2015-Aug-30 02:33N 34°15' E 135°07'0 0.0
2015-Aug-30 01:33N 34°15' E 135°07'0 0.0
2015-Aug-30 00:33N 34°15' E 135°07'0 0.0
2015-Aug-29 23:33N 34°15' E 135°07'0 0.0
2015-Aug-29 22:33N 34°15' E 135°07'0 0.5
2015-Aug-29 21:33N 34°14' E 135°07'1 1.1
2015-Aug-29 20:33N 34°15' E 135°06'0 0.0
2015-Aug-29 19:33N 34°15' E 135°06'0 0.0
2015-Aug-29 18:33N 34°15' E 135°06'0 0.0
2015-Aug-29 17:33N 34°15' E 135°06'0 0.0
2015-Aug-29 16:33N 34°15' E 135°06'0 0.1
2015-Aug-29 15:34N 34°15' E 135°06'1010.2
2015-Aug-29 14:33N 34°10' E 134°55'15 0.4
2015-Aug-28 03:33N 33°55' E 134°59'23611.2
2015-Aug-27 06:24N 35°03' E 139°33'1012.2
2015-Aug-27 05:33N 35°09' E 139°43'1110.7
2015-Aug-27 04:34N 35°20' E 139°43'1211.5
2015-Aug-27 03:34N 35°30' E 139°50'8 7.9
2015-Aug-27 02:34N 35°37' E 139°49'0 0.0
2015-Aug-27 01:34N 35°37' E 139°49'0 0.0
2015-Aug-27 00:34N 35°37' E 139°49'0 0.0
2015-Aug-26 23:34N 35°37' E 139°49'0 0.0
2015-Aug-26 22:34N 35°37' E 139°49'6 5.9
2015-Aug-26 21:33N 35°32' E 139°52'1010.2
2015-Aug-26 20:34N 35°22' E 139°53'0 0.1
2015-Aug-26 19:34N 35°22' E 139°53'0 0.0
2015-Aug-26 18:34N 35°22' E 139°53'0 0.0
2015-Aug-26 17:34N 35°22' E 139°53'0 0.0
2015-Aug-26 16:34N 35°22' E 139°53'0 0.0
2015-Aug-26 15:33N 35°22' E 139°53'0 0.0
2015-Aug-26 14:33N 35°22' E 139°53'0 0.0
2015-Aug-26 13:34N 35°22' E 139°53'0 0.0
2015-Aug-26 12:34N 35°22' E 139°53'0 0.0
2015-Aug-26 11:34N 35°22' E 139°53'0 0.0
2015-Aug-26 10:33N 35°22' E 139°53'0 0.0
2015-Aug-26 09:34N 35°22' E 139°53'0 0.0
2015-Aug-26 08:33N 35°22' E 139°53'0 0.0
2015-Aug-26 07:33N 35°22' E 139°53'0 0.0
2015-Aug-26 06:33N 35°22' E 139°53'0 0.0
2015-Aug-26 05:34N 35°22' E 139°53'7 6.8
2015-Aug-26 04:34N 35°28' E 139°51'8 7.8
2015-Aug-26 03:33N 35°28' E 140°00'0 0.0
2015-Aug-26 02:33N 35°28' E 140°00'0 0.0
2015-Aug-26 01:33N 35°28' E 140°00'0 0.0
2015-Aug-26 00:33N 35°28' E 140°00'0 0.0
2015-Aug-25 23:34N 35°28' E 140°00'2 1.6
2015-Aug-25 22:34N 35°29' E 139°58'0 0.0
2015-Aug-25 21:33N 35°29' E 139°58'0 0.1
2015-Aug-25 20:33N 35°29' E 139°58'0 0.0
2015-Aug-25 19:33N 35°29' E 139°58'0 0.0
2015-Aug-25 18:33N 35°29' E 139°58'0 0.0
2015-Aug-25 17:33N 35°29' E 139°58'0 0.0
2015-Aug-25 16:33N 35°29' E 139°58'0 0.0
2015-Aug-25 15:33N 35°29' E 139°58'0 0.0
2015-Aug-25 14:33N 35°29' E 139°58'0 0.0
2015-Aug-25 13:34N 35°29' E 139°58'0 0.0
2015-Aug-25 12:34N 35°29' E 139°58'0 0.0
2015-Aug-25 11:34N 35°29' E 139°58'0 0.0
2015-Aug-25 10:34N 35°29' E 139°58'0 0.0
2015-Aug-25 09:34N 35°29' E 139°58'1 1.3
2015-Aug-25 08:33N 35°29' E 139°57'1111.4
2015-Aug-25 07:33N 35°22' E 139°45'1111.5
2015-Aug-25 06:33N 35°11' E 139°47'1212.2
2015-Aug-25 05:33N 35°02' E 139°37'  
Track history (hours):
 
Tides and Currents Weather Stations Pressure Air Temp Water Temp Dewpoint Dewpoint Depression Visibility Wind Speed Wind Dir Waves Ship Positions

Suehiro Maru No.8

Last reported at 2015-Sep-02 14:09 UTC. Time now 2015-Sep-03 08:53 UTC.
Position N 34°12' E 134°50'.

Length 88 m; draft 4.9 m.

Type: Cargo ship. MMSI: 431400446.

Date/timePositionNaut miles runAvg speedWind from/ knotsBaromVisibWave heightAir tempDewpointWater temp
2015-Sep-02 14:09N 34°12' E 134°50'712.1
2015-Sep-02 13:33N 34°14' E 134°58'7 7.3
2015-Sep-02 12:33N 34°15' E 135°07'0 0.0
2015-Sep-02 11:33N 34°15' E 135°07'0 0.0
2015-Sep-02 10:33N 34°15' E 135°07'0 0.0
2015-Sep-02 09:33N 34°15' E 135°07'0 0.0
2015-Sep-02 08:33N 34°15' E 135°07'0 0.0
2015-Sep-02 07:33N 34°15' E 135°07'0 0.0
2015-Sep-02 06:33N 34°15' E 135°07'0 0.0
2015-Sep-02 05:33N 34°15' E 135°07'0 0.0
2015-Sep-02 04:33N 34°15' E 135°07'0 0.0
2015-Sep-02 03:33N 34°15' E 135°07'0 0.0
2015-Sep-02 02:33N 34°15' E 135°07'1 1.1
2015-Sep-02 01:33N 34°14' E 135°06'7 7.1
2015-Sep-02 00:33N 34°08' E 135°03'  
2015-Aug-30 09:33N 34°06' E 135°03'9 9.4
2015-Aug-30 08:33N 34°15' E 135°07'0 0.1
2015-Aug-30 07:33N 34°15' E 135°07'0 0.0
2015-Aug-30 06:33N 34°15' E 135°07'0 0.0
2015-Aug-30 05:33N 34°15' E 135°07'0 0.0
2015-Aug-30 04:33N 34°15' E 135°07'0 0.0
2015-Aug-30 03:33N 34°15' E 135°07'0 0.0
2015-Aug-30 02:33N 34°15' E 135°07'0 0.0
2015-Aug-30 01:33N 34°15' E 135°07'0 0.0
2015-Aug-30 00:33N 34°15' E 135°07'0 0.0
2015-Aug-29 23:33N 34°15' E 135°07'0 0.0
2015-Aug-29 22:33N 34°15' E 135°07'0 0.5
2015-Aug-29 21:33N 34°14' E 135°07'1 1.1
2015-Aug-29 20:33N 34°15' E 135°06'0 0.0
2015-Aug-29 19:33N 34°15' E 135°06'0 0.0
2015-Aug-29 18:33N 34°15' E 135°06'0 0.0
2015-Aug-29 17:33N 34°15' E 135°06'0 0.0
2015-Aug-29 16:33N 34°15' E 135°06'0 0.1
2015-Aug-29 15:34N 34°15' E 135°06'1010.2
2015-Aug-29 14:33N 34°10' E 134°55'15 0.4
2015-Aug-28 03:33N 33°55' E 134°59'23611.2
2015-Aug-27 06:24N 35°03' E 139°33'1012.2
2015-Aug-27 05:33N 35°09' E 139°43'1110.7
2015-Aug-27 04:34N 35°20' E 139°43'1211.5
2015-Aug-27 03:34N 35°30' E 139°50'8 7.9
2015-Aug-27 02:34N 35°37' E 139°49'0 0.0
2015-Aug-27 01:34N 35°37' E 139°49'0 0.0
2015-Aug-27 00:34N 35°37' E 139°49'0 0.0
2015-Aug-26 23:34N 35°37' E 139°49'0 0.0
2015-Aug-26 22:34N 35°37' E 139°49'6 5.9
2015-Aug-26 21:33N 35°32' E 139°52'1010.2
2015-Aug-26 20:34N 35°22' E 139°53'0 0.1
2015-Aug-26 19:34N 35°22' E 139°53'0 0.0
2015-Aug-26 18:34N 35°22' E 139°53'0 0.0
2015-Aug-26 17:34N 35°22' E 139°53'0 0.0
2015-Aug-26 16:34N 35°22' E 139°53'0 0.0
2015-Aug-26 15:33N 35°22' E 139°53'0 0.0
2015-Aug-26 14:33N 35°22' E 139°53'0 0.0
2015-Aug-26 13:34N 35°22' E 139°53'0 0.0
2015-Aug-26 12:34N 35°22' E 139°53'0 0.0
2015-Aug-26 11:34N 35°22' E 139°53'0 0.0
2015-Aug-26 10:33N 35°22' E 139°53'0 0.0
2015-Aug-26 09:34N 35°22' E 139°53'0 0.0
2015-Aug-26 08:33N 35°22' E 139°53'0 0.0
2015-Aug-26 07:33N 35°22' E 139°53'0 0.0
2015-Aug-26 06:33N 35°22' E 139°53'0 0.0
2015-Aug-26 05:34N 35°22' E 139°53'7 6.8
2015-Aug-26 04:34N 35°28' E 139°51'8 7.8
2015-Aug-26 03:33N 35°28' E 140°00'0 0.0
2015-Aug-26 02:33N 35°28' E 140°00'0 0.0
2015-Aug-26 01:33N 35°28' E 140°00'0 0.0
2015-Aug-26 00:33N 35°28' E 140°00'0 0.0
2015-Aug-25 23:34N 35°28' E 140°00'2 1.6
2015-Aug-25 22:34N 35°29' E 139°58'0 0.0
2015-Aug-25 21:33N 35°29' E 139°58'0 0.1
2015-Aug-25 20:33N 35°29' E 139°58'0 0.0
2015-Aug-25 19:33N 35°29' E 139°58'0 0.0
2015-Aug-25 18:33N 35°29' E 139°58'0 0.0
2015-Aug-25 17:33N 35°29' E 139°58'0 0.0
2015-Aug-25 16:33N 35°29' E 139°58'0 0.0
2015-Aug-25 15:33N 35°29' E 139°58'0 0.0
2015-Aug-25 14:33N 35°29' E 139°58'0 0.0
2015-Aug-25 13:34N 35°29' E 139°58'0 0.0
2015-Aug-25 12:34N 35°29' E 139°58'0 0.0
2015-Aug-25 11:34N 35°29' E 139°58'0 0.0
2015-Aug-25 10:34N 35°29' E 139°58'0 0.0
2015-Aug-25 09:34N 35°29' E 139°58'1 1.3
2015-Aug-25 08:33N 35°29' E 139°57'1111.4
2015-Aug-25 07:33N 35°22' E 139°45'1111.5
2015-Aug-25 06:33N 35°11' E 139°47'1212.2
2015-Aug-25 05:33N 35°02' E 139°37'  

Dump ship's entire track history